Time;durP1;ratioP1;P1;durP2;ratioP2;P2;SDS_P1;SDS_P2;PMS_P1;PMS_P2;Temp;Humidity;BMP_temperature;BMP_pressure;BME280_temperature;BME280_humidity;BME280_pressure;Samples;Min_cycle;Max_cycle;Signal;HPM_P1;HPM_P2
2022/11/18 00:02:38;;;;;;;2.00;0.50;;;19.60;74.20;;;;;;10447318;28;20132;-31
2022/11/18 00:07:41;;;;;;;3.08;0.52;;;19.60;74.30;;;;;;10448125;28;20048;-29
2022/11/18 00:18:04;;;;;;;0.50;0.50;;;19.70;73.50;;;;;;10450966;28;20044;-29
2022/11/18 00:23:07;;;;;;;5.35;0.98;;;19.60;74.00;;;;;;10447730;28;20114;-35
2022/11/18 00:28:09;;;;;;;2.90;0.60;;;19.50;75.00;;;;;;10452370;28;20049;-27
2022/11/18 00:33:11;;;;;;;2.78;0.52;;;19.60;74.40;;;;;;10451996;28;20085;-30
2022/11/18 00:38:14;;;;;;;3.63;0.70;;;19.60;74.20;;;;;;10453058;28;20098;-29
2022/11/18 00:43:16;;;;;;;0.90;0.50;;;19.50;74.30;;;;;;10446952;28;20077;-28
2022/11/18 00:48:20;;;;;;;1.83;0.90;;;19.60;73.90;;;;;;10455272;28;20084;-29
2022/11/18 00:53:25;;;;;;;4.07;0.60;;;19.50;74.20;;;;;;10456507;28;20482;-31
2022/11/18 00:58:28;;;;;;;4.32;0.80;;;19.60;74.10;;;;;;10450484;28;20077;-31
2022/11/18 01:03:31;;;;;;;1.52;1.05;;;19.60;74.10;;;;;;10453542;28;20059;-28
2022/11/18 01:08:34;;;;;;;2.83;0.88;;;19.50;74.20;;;;;;10449372;28;20044;-29
2022/11/18 01:13:36;;;;;;;1.60;0.70;;;19.50;74.50;;;;;;10446536;28;20049;-29
2022/11/18 01:18:37;;;;;;;0.75;0.70;;;19.50;73.90;;;;;;10456984;28;20138;-29
2022/11/18 01:23:40;;;;;;;3.70;0.60;;;19.50;74.10;;;;;;10448322;28;20129;-34
2022/11/18 01:28:43;;;;;;;0.85;0.50;;;19.50;74.50;;;;;;10447472;28;20052;-31
2022/11/18 01:33:46;;;;;;;2.53;0.70;;;19.50;74.30;;;;;;10454408;28;20045;-32
2022/11/18 01:38:50;;;;;;;1.88;0.73;;;19.50;74.40;;;;;;10453240;28;20131;-28
2022/11/18 01:43:55;;;;;;;0.50;0.50;;;19.40;74.90;;;;;;10453751;28;20122;-29
2022/11/18 01:49:00;;;;;;;2.88;0.88;;;19.50;74.30;;;;;;10455786;28;20143;-28
2022/11/18 01:54:08;;;;;;;2.47;0.60;;;19.50;74.50;;;;;;10451587;28;20067;-31
2022/11/18 01:59:13;;;;;;;0.93;0.50;;;19.50;74.20;;;;;;10442675;28;20140;-29
2022/11/18 02:04:15;;;;;;;0.80;0.55;;;19.50;74.10;;;;;;10436636;28;20040;-29
2022/11/18 02:09:19;;;;;;;1.80;0.63;;;19.40;74.30;;;;;;10452431;28;20072;-32
2022/11/18 02:14:24;;;;;;;3.15;0.70;;;19.40;74.60;;;;;;10452522;28;20147;-29
2022/11/18 02:20:01;;;;;;;1.65;0.70;;;19.20;75.50;;;;;;10450541;28;20049;-30
2022/11/18 02:25:16;;;;;;;1.73;0.93;;;19.40;74.80;;;;;;10447267;28;20037;-28
2022/11/18 02:30:20;;;;;;;2.13;0.70;;;19.40;74.10;;;;;;10450171;28;20444;-29
2022/11/18 02:35:28;;;;;;;1.27;0.57;;;19.40;74.10;;;;;;10442330;28;20155;-29
2022/11/18 02:40:34;;;;;;;2.63;0.45;;;19.40;75.00;;;;;;10447189;28;20045;-31
2022/11/18 02:45:40;;;;;;;0.80;0.55;;;19.30;74.80;;;;;;10451393;28;20128;-29
2022/11/18 02:50:44;;;;;;;1.75;0.60;;;19.30;73.80;;;;;;10449628;28;20082;-28
2022/11/18 02:55:47;;;;;;;4.40;0.70;;;19.40;74.10;;;;;;10451657;28;20508;-28
2022/11/18 03:00:55;;;;;;;2.25;0.50;;;19.30;74.70;;;;;;10447462;28;20454;-28
2022/11/18 03:06:09;;;;;;;1.48;0.60;;;19.30;74.50;;;;;;10448313;28;20044;-28
2022/11/18 03:11:15;;;;;;;1.77;0.70;;;19.30;74.20;;;;;;10447068;28;20574;-26
2022/11/18 03:16:26;;;;;;;0.77;0.50;;;19.30;73.90;;;;;;10446987;28;20072;-29
2022/11/18 03:21:34;;;;;;;1.42;0.82;;;19.30;74.20;;;;;;10455439;28;20045;-34
2022/11/18 03:26:40;;;;;;;2.13;0.52;;;19.30;74.10;;;;;;10447027;28;20502;-32
2022/11/18 03:31:46;;;;;;;1.10;0.70;;;19.20;74.20;;;;;;10451473;28;20061;-30
2022/11/18 03:36:52;;;;;;;2.50;1.05;;;19.30;74.00;;;;;;10449029;28;20504;-28
2022/11/18 03:42:00;;;;;;;0.85;0.55;;;19.20;74.50;;;;;;10454773;28;20053;-29
2022/11/18 03:47:07;;;;;;;1.85;0.63;;;19.10;75.20;;;;;;10453710;28;20053;-28
2022/11/18 03:52:15;;;;;;;1.05;0.70;;;19.20;74.90;;;;;;10454213;28;20057;-29
2022/11/18 03:57:23;;;;;;;1.70;0.57;;;19.30;74.50;;;;;;10453398;28;20525;-29
2022/11/18 04:02:27;;;;;;;3.03;0.70;;;19.10;74.90;;;;;;10451857;28;20509;-28
2022/11/18 04:07:34;;;;;;;3.25;0.60;;;19.10;73.80;;;;;;10458745;28;20049;-27
2022/11/18 04:12:43;;;;;;;1.52;0.57;;;19.20;74.50;;;;;;10454394;28;20075;-34
2022/11/18 04:17:46;;;;;;;2.15;0.93;;;18.80;77.50;;;;;;10457026;28;20056;-30
2022/11/18 04:22:48;;;;;;;4.63;1.00;;;19.10;74.40;;;;;;10457159;28;20119;-29
2022/11/18 04:27:51;;;;;;;2.88;1.48;;;18.30;78.60;;;;;;10459105;28;20075;-30
2022/11/18 04:32:54;;;;;;;;;;;18.60;75.90;;;;;;10451870;28;20053;-29
2022/11/18 04:37:56;;;;;;;3.17;0.70;;;19.00;75.20;;;;;;10444197;28;19979;-26
2022/11/18 04:42:58;;;;;;;0.82;0.68;;;19.10;74.90;;;;;;10449152;28;20124;-28
2022/11/18 04:48:01;;;;;;;1.60;0.60;;;19.20;73.90;;;;;;10455203;28;20490;-27
2022/11/18 04:53:03;;;;;;;1.38;0.55;;;19.10;73.90;;;;;;10453083;28;20158;-28
2022/11/18 04:58:05;;;;;;;2.92;0.95;;;19.00;74.40;;;;;;10454105;28;20103;-28
2022/11/18 05:03:08;;;;;;;2.72;0.63;;;19.10;73.60;;;;;;10455328;28;20119;-28
2022/11/18 05:08:10;;;;;;;1.20;0.70;;;19.00;73.80;;;;;;10456659;28;20124;-32
2022/11/18 05:13:13;;;;;;;0.60;0.43;;;19.10;73.70;;;;;;10454465;28;20138;-30
2022/11/18 05:18:16;;;;;;;1.65;0.60;;;19.20;73.20;;;;;;10453798;28;20474;-30
2022/11/18 05:23:18;;;;;;;1.55;0.60;;;19.20;73.20;;;;;;10438037;28;20138;-28
2022/11/18 05:28:20;;;;;;;1.33;0.68;;;19.10;73.60;;;;;;10454763;28;20041;-34
2022/11/18 05:33:23;;;;;;;2.45;0.43;;;19.10;73.30;;;;;;10452847;28;20072;-32
2022/11/18 05:38:25;;;;;;;1.50;0.63;;;19.20;73.10;;;;;;10452035;28;20076;-31
2022/11/18 05:43:27;;;;;;;1.55;0.52;;;19.10;73.50;;;;;;10451117;28;20456;-28
2022/11/18 05:48:30;;;;;;;1.30;0.60;;;19.10;73.30;;;;;;10455303;28;20099;-36
2022/11/18 05:53:32;;;;;;;0.75;0.52;;;19.20;73.00;;;;;;10450774;28;20056;-29
2022/11/18 05:58:34;;;;;;;3.83;0.60;;;19.10;72.80;;;;;;10448001;28;20134;-28
2022/11/18 06:03:40;;;;;;;1.52;0.70;;;19.20;72.60;;;;;;10450567;28;20478;-29
2022/11/18 06:08:46;;;;;;;2.67;0.70;;;19.20;73.00;;;;;;10448051;28;20077;-30
2022/11/18 06:13:53;;;;;;;2.33;0.95;;;19.10;73.20;;;;;;10449365;28;20067;-29
2022/11/18 06:18:56;;;;;;;2.75;0.80;;;19.10;73.20;;;;;;10447770;28;20133;-30
2022/11/18 06:23:59;;;;;;;2.15;0.60;;;18.80;74.30;;;;;;10438056;28;20040;-28
2022/11/18 06:29:01;;;;;;;1.75;0.70;;;18.90;74.90;;;;;;10448213;28;20478;-28
2022/11/18 06:34:04;;;;;;;2.95;0.52;;;18.80;75.40;;;;;;10446141;28;20052;-27
2022/11/18 06:39:07;;;;;;;1.92;0.80;;;19.00;74.50;;;;;;10451709;28;20051;-30
2022/11/18 06:44:10;;;;;;;;;;;19.10;74.30;;;;;;10444867;28;20056;-27
2022/11/18 06:49:14;;;;;;;1.63;0.70;;;19.10;73.80;;;;;;10450353;28;20060;-27
2022/11/18 06:54:15;;;;;;;0.60;0.60;;;18.90;74.70;;;;;;10458351;28;20049;-27
2022/11/18 06:59:22;;;;;;;5.15;1.05;;;19.00;74.40;;;;;;10445535;28;20053;-30
2022/11/18 07:15:29;;;;;;;0.55;0.50;;;18.50;76.00;;;;;;10502758;27;20118;-27
2022/11/18 07:20:31;;;;;;;1.35;0.50;;;19.00;76.40;;;;;;10522736;28;20052;-29
2022/11/18 07:25:32;;;;;;;3.70;0.83;;;19.00;76.20;;;;;;10522447;28;20123;-29
2022/11/18 07:30:36;;;;;;;3.92;0.77;;;19.10;76.00;;;;;;10521162;28;20065;-29
2022/11/18 07:35:38;;;;;;;3.97;1.00;;;19.00;76.20;;;;;;10510856;28;20432;-29
2022/11/18 07:40:40;;;;;;;3.15;0.70;;;18.90;72.00;;;;;;10529527;28;20052;-29
2022/11/18 07:45:43;;;;;;;2.15;0.65;;;19.10;76.00;;;;;;10522503;28;20048;-31
2022/11/18 07:50:45;;;;;;;1.55;0.82;;;19.00;76.60;;;;;;10523286;28;20501;-28
2022/11/18 07:55:47;;;;;;;1.80;0.50;;;18.70;78.10;;;;;;10529295;28;20048;-30
2022/11/18 08:00:50;;;;;;;3.30;0.80;;;19.10;75.70;;;;;;10519774;28;20068;-30
2022/11/18 08:05:52;;;;;;;3.80;0.85;;;18.90;76.70;;;;;;10525038;28;20080;-29
2022/11/18 08:10:55;;;;;;;2.28;0.77;;;18.60;77.70;;;;;;10523416;28;20573;-30
2022/11/18 08:15:59;;;;;;;2.88;0.50;;;18.80;76.70;;;;;;10524118;28;20044;-33
2022/11/18 08:21:02;;;;;;;4.65;0.80;;;19.00;76.70;;;;;;10519504;28;20044;-31
2022/11/18 08:26:06;;;;;;;2.50;0.70;;;18.90;76.70;;;;;;10482764;28;20567;-32
2022/11/18 08:31:15;;;;;;;4.18;1.58;;;19.00;76.40;;;;;;10488026;28;20051;-27
2022/11/18 08:36:21;;;;;;;1.20;0.70;;;18.90;76.00;;;;;;10492881;28;20130;-29
2022/11/18 08:41:29;;;;;;;1.15;0.63;;;18.80;77.10;;;;;;10489248;28;20462;-29
2022/11/18 08:46:32;;;;;;;1.10;0.60;;;18.70;77.90;;;;;;10483023;28;20468;-28
2022/11/18 08:51:34;;;;;;;3.80;0.73;;;18.80;77.20;;;;;;10492878;28;20043;-27
2022/11/18 08:56:36;;;;;;;1.73;0.82;;;18.80;77.60;;;;;;10499001;28;20124;-30
2022/11/18 09:01:40;;;;;;;1.55;0.88;;;18.60;78.60;;;;;;10495995;28;20040;-30
2022/11/18 09:06:42;;;;;;;3.55;0.60;;;18.80;75.20;;;;;;10493283;28;20052;-29
2022/11/18 09:11:44;;;;;;;2.35;0.95;;;18.90;76.60;;;;;;10491447;28;20057;-29
2022/11/18 09:16:48;;;;;;;1.20;0.70;;;18.90;76.20;;;;;;10497333;28;20126;-28
2022/11/18 09:21:50;;;;;;;3.72;0.68;;;19.10;74.40;;;;;;10493631;28;20751;-29
2022/11/18 09:26:52;;;;;;;3.15;0.60;;;19.20;73.90;;;;;;10500520;28;20098;-31
2022/11/18 09:31:55;;;;;;;;;;;19.20;74.30;;;;;;10476333;28;20051;-38
2022/11/18 09:36:57;;;;;;;2.75;1.08;;;19.20;74.20;;;;;;10489728;28;19924;-30
2022/11/18 09:42:15;;;;;;;5.57;1.83;;;19.10;74.30;;;;;;10485874;28;20126;-28
2022/11/18 09:47:26;;;;;;;0.47;0.40;;;18.80;70.30;;;;;;10484224;28;20105;-27
2022/11/18 09:52:31;;;;;;;10.43;0.90;;;19.10;74.20;;;;;;10484272;28;20068;-27
2022/11/18 09:57:38;;;;;;;0.73;0.57;;;18.80;74.90;;;;;;10489498;28;21288;-28
2022/11/18 10:02:51;;;;;;;3.28;0.80;;;19.10;74.50;;;;;;10486638;28;20118;-28
2022/11/18 10:08:07;;;;;;;;;;;19.20;73.80;;;;;;10477800;28;20114;-29
2022/11/18 10:13:18;;;;;;;4.38;0.77;;;18.80;75.90;;;;;;10478839;28;20038;-34
2022/11/18 10:18:28;;;;;;;3.00;0.88;;;19.10;74.10;;;;;;10473639;28;20394;-29
2022/11/18 10:23:35;;;;;;;4.22;0.88;;;19.00;74.10;;;;;;10491829;28;20101;-29
2022/11/18 10:28:36;;;;;;;1.58;0.80;;;19.10;74.00;;;;;;10481092;28;20076;-29
2022/11/18 10:33:40;;;;;;;3.38;0.77;;;19.10;73.80;;;;;;10487669;28;20452;-30
2022/11/18 10:38:42;;;;;;;1.40;0.65;;;19.00;74.90;;;;;;10494350;28;20063;-29
2022/11/18 10:43:48;;;;;;;4.40;1.35;;;18.80;76.50;;;;;;10476431;28;20059;-28
2022/11/18 10:49:16;;;;;;;1.73;0.50;;;19.00;74.30;;;;;;10482964;28;20053;-27
2022/11/18 10:54:20;;;;;;;3.67;0.60;;;19.00;74.40;;;;;;10481149;28;20088;-32
2022/11/18 10:59:31;;;;;;;6.88;1.27;;;19.10;74.70;;;;;;10472569;28;20098;-28
2022/11/18 11:04:37;;;;;;;1.85;0.70;;;19.00;74.30;;;;;;10484479;28;20071;-28
2022/11/18 11:09:39;;;;;;;3.55;1.02;;;18.80;75.60;;;;;;10492478;28;20136;-29
2022/11/18 11:14:50;;;;;;;2.13;1.13;;;18.30;73.70;;;;;;10474292;28;20129;-31
2022/11/18 11:20:01;;;;;;;1.13;0.80;;;17.70;82.80;;;;;;10484345;28;20072;-29
2022/11/18 11:25:06;;;;;;;1.85;0.68;;;18.70;77.00;;;;;;10484685;28;20037;-28
2022/11/18 11:30:18;;;;;;;2.30;1.20;;;18.50;78.30;;;;;;10477702;28;20120;-29
2022/11/18 11:35:25;;;;;;;3.22;0.90;;;18.30;79.00;;;;;;10479789;28;20060;-30
2022/11/18 11:40:35;;;;;;;1.75;0.85;;;18.80;75.60;;;;;;10480304;28;20044;-29
2022/11/18 11:45:47;;;;;;;1.58;0.80;;;19.00;74.40;;;;;;10492815;28;20143;-28
2022/11/18 11:50:54;;;;;;;1.77;0.68;;;19.00;74.10;;;;;;10479539;28;20577;-29
2022/11/18 11:56:04;;;;;;;6.07;1.48;;;18.90;74.50;;;;;;10480764;28;20084;-28
2022/11/18 12:01:17;;;;;;;1.70;0.80;;;19.00;73.90;;;;;;10484923;28;20131;-31
2022/11/18 12:06:20;;;;;;;6.90;0.98;;;18.90;75.10;;;;;;10484554;28;20048;-27
2022/11/18 12:11:30;;;;;;;2.33;1.00;;;18.90;74.70;;;;;;10489870;28;20051;-28
2022/11/18 12:16:40;;;;;;;4.28;1.00;;;18.90;74.60;;;;;;10491389;28;20052;-28
2022/11/18 12:22:04;;;;;;;5.35;1.95;;;19.00;74.20;;;;;;10483174;28;20080;-29
2022/11/18 12:27:12;;;;;;;1.25;0.63;;;18.90;74.50;;;;;;10479342;28;20048;-29
2022/11/18 12:32:33;;;;;;;5.13;0.95;;;19.00;74.90;;;;;;10493705;28;20055;-28
2022/11/18 12:37:57;;;;;;;4.07;0.60;;;19.00;75.40;;;;;;10474549;28;20416;-27
2022/11/18 12:48:40;;;;;;;1.75;0.88;;;19.10;74.80;;;;;;10481165;28;20049;-29
2022/11/18 12:53:45;;;;;;;2.47;1.33;;;19.10;74.20;;;;;;10493096;28;20056;-27
2022/11/18 12:58:48;;;;;;;3.50;0.95;;;18.90;75.10;;;;;;10491571;28;20126;-28
2022/11/18 13:03:49;;;;;;;4.32;1.08;;;19.00;74.60;;;;;;10493237;28;20100;-27
2022/11/18 13:08:56;;;;;;;3.83;1.27;;;18.80;75.90;;;;;;10485879;28;20057;-30
2022/11/18 13:19:21;;;;;;;0.95;0.82;;;18.40;75.40;;;;;;10484721;28;20045;-28
2022/11/18 13:24:25;;;;;;;2.58;0.98;;;18.80;77.00;;;;;;10478915;28;20511;-28
2022/11/18 13:29:38;;;;;;;1.25;0.70;;;19.20;74.20;;;;;;10484805;28;20098;-27
2022/11/18 13:34:45;;;;;;;1.83;0.55;;;19.40;73.80;;;;;;10469917;28;20079;-25
2022/11/18 13:39:49;;;;;;;2.50;1.15;;;19.20;74.30;;;;;;10487618;28;20135;-30
2022/11/18 13:44:56;;;;;;;1.20;0.77;;;18.40;80.30;;;;;;10492997;28;20045;-30
2022/11/18 13:50:07;;;;;;;3.33;1.23;;;18.00;84.00;;;;;;10488849;28;20055;-29
2022/11/18 13:55:18;;;;;;;3.30;1.08;;;18.50;79.10;;;;;;10486853;28;20141;-29
2022/11/18 14:00:23;;;;;;;3.38;0.80;;;18.70;78.70;;;;;;10498083;28;20044;-30
2022/11/18 14:05:26;;;;;;;2.97;1.00;;;18.60;79.70;;;;;;10486832;28;20080;-32
2022/11/18 14:10:39;;;;;;;3.03;1.15;;;18.70;79.80;;;;;;10498315;28;20044;-29
2022/11/18 14:15:42;;;;;;;4.15;0.88;;;18.60;79.80;;;;;;10483308;28;20056;-30
2022/11/18 14:20:49;;;;;;;;;;;19.20;76.40;;;;;;10484892;28;20052;-34
2022/11/18 14:25:53;;;;;;;2.60;0.95;;;18.50;81.20;;;;;;10488861;28;19974;-34
2022/11/18 14:31:04;;;;;;;2.60;1.00;;;19.10;77.10;;;;;;10480512;28;20044;-29
2022/11/18 14:36:12;;;;;;;2.28;0.80;;;19.00;77.80;;;;;;10488095;28;20090;-28
2022/11/18 14:41:45;;;;;;;1.85;0.88;;;19.10;77.30;;;;;;10485808;28;20048;-31
2022/11/18 14:46:41;;;;;;;2.20;0.77;;;19.20;77.20;;;;;;10486695;28;20040;-31
2022/11/18 14:51:43;;;;;;;3.35;1.00;;;19.50;74.60;;;;;;10482800;28;20634;-29
2022/11/18 14:56:48;;;;;;;1.27;0.50;;;19.60;74.30;;;;;;10485314;28;20580;-33
2022/11/18 15:01:51;;;;;;;2.72;0.85;;;19.70;74.20;;;;;;10475202;28;20056;-32
2022/11/18 15:06:53;;;;;;;2.85;0.80;;;19.70;74.10;;;;;;10475639;28;20091;-28
2022/11/18 15:11:56;;;;;;;2.88;0.98;;;19.70;74.30;;;;;;10484700;28;20375;-29
2022/11/18 15:16:58;;;;;;;0.98;0.73;;;19.80;74.20;;;;;;10485636;28;20494;-31
2022/11/18 15:22:00;;;;;;;2.22;0.70;;;19.80;74.70;;;;;;10479375;28;20053;-29
2022/11/18 15:27:04;;;;;;;1.75;0.77;;;19.90;74.20;;;;;;10487867;28;20048;-29
2022/11/18 15:32:06;;;;;;;1.50;0.60;;;19.90;74.30;;;;;;10488465;28;20133;-30
2022/11/18 15:37:11;;;;;;;5.20;0.75;;;19.90;74.70;;;;;;10477742;28;20044;-31
2022/11/18 15:42:15;;;;;;;1.45;0.80;;;19.90;74.60;;;;;;10494134;28;20045;-28
2022/11/18 15:47:16;;;;;;;3.70;0.75;;;19.90;74.80;;;;;;10495099;28;20056;-29
2022/11/18 15:52:18;;;;;;;2.53;0.63;;;19.90;75.10;;;;;;10494498;28;20059;-32
2022/11/18 15:57:22;;;;;;;2.72;0.70;;;20.00;75.30;;;;;;10484850;28;20044;-29
2022/11/18 16:02:24;;;;;;;4.75;0.65;;;19.90;75.70;;;;;;10488995;28;20400;-29
2022/11/18 16:07:26;;;;;;;2.75;0.75;;;19.90;75.60;;;;;;10489857;28;20049;-28
2022/11/18 16:12:47;;;;;;;4.35;1.67;;;20.00;75.40;;;;;;10489223;28;20540;-28
2022/11/18 16:17:49;;;;;;;2.47;0.80;;;20.10;74.70;;;;;;10490552;28;20543;-28
2022/11/18 16:22:52;;;;;;;1.38;0.85;;;20.00;74.50;;;;;;10494063;28;20133;-32
2022/11/18 16:27:56;;;;;;;1.92;0.93;;;20.00;74.60;;;;;;10492284;28;20052;-29
2022/11/18 16:32:58;;;;;;;3.45;1.17;;;19.90;74.80;;;;;;10483039;28;20527;-33
2022/11/18 16:38:00;;;;;;;3.08;0.77;;;20.00;74.70;;;;;;10492403;28;20493;-32
2022/11/18 16:43:03;;;;;;;2.33;0.80;;;20.00;74.80;;;;;;10488937;28;20049;-30
2022/11/18 16:48:05;;;;;;;2.83;0.80;;;20.00;74.70;;;;;;10495239;28;20131;-30
2022/11/18 16:53:07;;;;;;;;;;;19.90;74.60;;;;;;10489188;28;20061;-35
2022/11/18 16:58:11;;;;;;;5.25;1.33;;;20.00;74.60;;;;;;10488705;28;19928;-29
2022/11/18 17:03:13;;;;;;;4.40;1.35;;;20.00;74.40;;;;;;10489996;28;20098;-29
2022/11/18 17:08:15;;;;;;;3.08;0.88;;;20.00;74.50;;;;;;10501683;28;20133;-29
2022/11/18 17:13:18;;;;;;;5.13;1.33;;;19.90;74.80;;;;;;10497463;28;20048;-27
2022/11/18 17:18:20;;;;;;;6.03;1.48;;;19.80;75.20;;;;;;10495500;28;20056;-29
2022/11/18 17:23:22;;;;;;;4.20;1.80;;;19.80;74.90;;;;;;10495236;28;20469;-29
2022/11/18 17:28:26;;;;;;;3.08;1.48;;;19.80;75.10;;;;;;10484496;28;20048;-29
2022/11/18 17:33:28;;;;;;;3.40;1.13;;;19.70;75.30;;;;;;10488073;28;20114;-28
2022/11/18 17:38:30;;;;;;;4.90;2.00;;;19.70;75.50;;;;;;10494886;28;20040;-28
2022/11/18 17:43:34;;;;;;;6.03;1.70;;;19.70;75.30;;;;;;10486803;28;20053;-31
2022/11/18 17:48:36;;;;;;;4.35;1.38;;;19.90;74.90;;;;;;10486103;28;20064;-27
2022/11/18 17:53:38;;;;;;;4.28;1.80;;;19.90;75.20;;;;;;10488992;28;20143;-30
2022/11/18 17:58:41;;;;;;;6.43;1.40;;;20.00;74.90;;;;;;10495916;28;20098;-28
2022/11/18 18:03:43;;;;;;;7.90;2.10;;;19.90;75.50;;;;;;10491591;28;20044;-31
2022/11/18 18:08:45;;;;;;;;;;;19.80;77.00;;;;;;10491578;28;20414;-30
2022/11/18 18:19:10;;;;;;;10.02;2.95;;;19.70;77.40;;;;;;10481112;28;20049;-32
2022/11/18 18:24:15;;;;;;;8.75;1.58;;;19.70;77.60;;;;;;10483372;28;20747;-29
2022/11/18 18:29:19;;;;;;;8.45;1.95;;;19.70;77.80;;;;;;10476454;28;20040;-29
2022/11/18 18:34:20;;;;;;;4.88;1.80;;;19.70;78.00;;;;;;10475532;28;20040;-31
2022/11/18 18:39:22;;;;;;;5.97;1.90;;;19.50;78.90;;;;;;10489620;28;20044;-31
2022/11/18 18:46:27;;;;;;;7.07;2.05;;;19.60;79.00;;;;;;10480674;28;20041;-30
2022/11/18 18:49:48;;;;;;;5.47;2.22;;;19.70;78.60;;;;;;10487142;28;20133;-28
2022/11/18 18:54:50;;;;;;;4.57;2.30;;;19.90;77.80;;;;;;10495509;28;20143;-32
2022/11/18 18:59:53;;;;;;;8.02;1.48;;;19.80;78.50;;;;;;10495163;28;20051;-29
2022/11/18 19:04:55;;;;;;;5.75;1.40;;;19.90;78.40;;;;;;10491592;28;20052;-33
2022/11/18 19:09:57;;;;;;;9.02;2.45;;;19.90;78.70;;;;;;10487582;28;20102;-30
2022/11/18 19:15:00;;;;;;;5.07;2.40;;;19.90;78.70;;;;;;10490751;28;20544;-33
2022/11/18 19:25:22;;;;;;;5.88;1.90;;;19.80;79.50;;;;;;10473606;28;20049;-30
2022/11/18 19:30:25;;;;;;;6.75;2.80;;;19.80;78.80;;;;;;10475462;28;20059;-29
2022/11/18 19:35:27;;;;;;;7.75;5.25;;;19.80;79.00;;;;;;10476487;28;20488;-28
2022/11/18 19:40:29;;;;;;;11.57;4.10;;;19.80;79.10;;;;;;10486623;28;20494;-29
2022/11/18 19:45:32;;;;;;;4.05;2.30;;;19.80;78.80;;;;;;10485090;28;20041;-29
2022/11/18 19:50:34;;;;;;;8.18;1.80;;;19.80;78.90;;;;;;10472809;28;20455;-30
2022/11/18 19:55:36;;;;;;;8.02;1.95;;;19.80;78.70;;;;;;10488645;28;20041;-31
2022/11/18 20:00:39;;;;;;;4.85;1.83;;;19.80;79.10;;;;;;10493189;28;20053;-29
2022/11/18 20:11:01;;;;;;;4.63;1.83;;;19.80;78.70;;;;;;10482746;28;20135;-29
2022/11/18 20:16:06;;;;;;;4.60;1.67;;;19.90;78.30;;;;;;10471654;28;20052;-28
2022/11/18 20:21:10;;;;;;;6.25;1.48;;;19.60;79.40;;;;;;10496189;28;20040;-29
2022/11/18 20:26:14;;;;;;;5.32;1.70;;;19.80;78.40;;;;;;10493014;28;20056;-32
2022/11/18 20:31:19;;;;;;;11.25;1.50;;;19.90;78.20;;;;;;10496122;28;20044;-30
2022/11/18 20:36:22;;;;;;;4.18;1.35;;;19.90;78.20;;;;;;10491333;28;20152;-30
2022/11/18 20:41:25;;;;;;;7.28;2.22;;;19.80;78.00;;;;;;10504172;28;20067;-28
2022/11/18 20:46:29;;;;;;;8.65;2.15;;;19.80;78.00;;;;;;10484467;28;20075;-29
2022/11/18 20:51:30;;;;;;;5.50;1.63;;;19.80;77.80;;;;;;10495125;28;20048;-29
2022/11/18 20:56:33;;;;;;;9.15;2.47;;;19.80;77.60;;;;;;10485463;28;20447;-29
2022/11/18 21:01:36;;;;;;;8.02;2.53;;;19.80;77.80;;;;;;10480964;28;20094;-29
2022/11/18 21:06:38;;;;;;;8.85;1.95;;;19.80;77.60;;;;;;10475124;28;20087;-29
2022/11/18 21:11:40;;;;;;;8.70;1.80;;;19.80;77.60;;;;;;10487111;28;20730;-30
2022/11/18 21:16:44;;;;;;;4.28;1.98;;;19.80;77.30;;;;;;10482333;28;20155;-30
2022/11/18 21:21:47;;;;;;;8.77;2.67;;;19.80;77.30;;;;;;10489622;28;20098;-29
2022/11/18 21:26:51;;;;;;;10.13;2.03;;;19.70;77.50;;;;;;10486420;28;20040;-32
2022/11/18 21:31:55;;;;;;;10.57;2.13;;;19.70;77.20;;;;;;10494206;28;20477;-32
2022/11/18 21:36:57;;;;;;;11.48;2.25;;;19.70;77.30;;;;;;10486738;28;20047;-28
2022/11/18 21:41:58;;;;;;;6.13;2.08;;;19.70;77.30;;;;;;10487443;28;20044;-30
2022/11/18 21:47:02;;;;;;;7.53;2.33;;;19.70;77.30;;;;;;10482300;28;20052;-29
2022/11/18 21:52:04;;;;;;;13.38;2.80;;;19.70;77.40;;;;;;10470372;28;20045;-27
2022/11/18 21:57:06;;;;;;;8.60;2.50;;;19.70;77.30;;;;;;10487249;28;20095;-30
2022/11/18 22:02:13;;;;;;;6.65;2.67;;;19.60;77.40;;;;;;10494219;28;20045;-29
2022/11/18 22:07:15;;;;;;;8.70;2.75;;;19.60;77.40;;;;;;10467317;28;20041;-29
2022/11/18 22:12:17;;;;;;;8.32;2.35;;;19.60;77.60;;;;;;10482425;28;20076;-34
2022/11/18 22:17:20;;;;;;;3.78;1.95;;;19.60;77.50;;;;;;10478152;28;20052;-31
2022/11/18 22:22:22;;;;;;;6.80;2.13;;;19.60;77.50;;;;;;10487742;28;20072;-29
2022/11/18 22:27:24;;;;;;;5.28;2.45;;;19.50;77.40;;;;;;10502190;28;20149;-30
2022/11/18 22:32:27;;;;;;;6.78;2.35;;;19.60;77.40;;;;;;10489574;28;20101;-31
2022/11/18 22:37:29;;;;;;;5.47;2.10;;;19.60;77.30;;;;;;10480755;28;20084;-28
2022/11/18 22:42:49;;;;;;;7.03;2.70;;;19.50;77.20;;;;;;10484099;28;20131;-26
2022/11/18 22:47:53;;;;;;;5.47;1.80;;;19.50;77.10;;;;;;10467786;28;20105;-29
2022/11/18 22:52:54;;;;;;;8.27;2.50;;;19.60;76.90;;;;;;10487029;28;20041;-41
2022/11/18 22:57:56;;;;;;;6.88;3.63;;;19.50;77.00;;;;;;10480326;28;20089;-28
2022/11/18 23:02:59;;;;;;;3.35;2.17;;;19.60;76.60;;;;;;10490766;28;20175;-29
2022/11/18 23:08:01;;;;;;;3.83;1.98;;;19.50;76.80;;;;;;10494411;28;20037;-29
2022/11/18 23:18:23;;;;;;;8.35;2.15;;;19.50;77.00;;;;;;10472164;28;20515;-28
2022/11/18 23:23:25;;;;;;;9.52;2.45;;;19.60;76.70;;;;;;10479619;28;20044;-29
2022/11/18 23:28:28;;;;;;;4.70;2.40;;;19.50;76.70;;;;;;10488065;28;20066;-27
2022/11/18 23:33:32;;;;;;;6.13;2.30;;;19.60;76.50;;;;;;10488629;28;20049;-29
2022/11/18 23:38:34;;;;;;;5.35;2.47;;;19.50;76.50;;;;;;10496375;28;20076;-32
2022/11/18 23:43:37;;;;;;;3.70;2.08;;;19.50;76.30;;;;;;10486095;28;20052;-28
2022/11/18 23:48:42;;;;;;;3.63;1.83;;;19.50;76.50;;;;;;10479041;28;20150;-31
2022/11/18 23:53:46;;;;;;;3.85;1.95;;;19.50;76.50;;;;;;10481536;28;20068;-28
2022/11/18 23:58:50;;;;;;;3.38;2.15;;;19.50;76.50;;;;;;10495846;28;20136;-27
